Time;durP1;ratioP1;P1;durP2;ratioP2;P2;SDS_P1;SDS_P2;PMS_P1;PMS_P2;Temp;Humidity;BMP_temperature;BMP_pressure;BME280_temperature;BME280_humidity;BME280_pressure;Samples;Min_cycle;Max_cycle;Signal;HPM_P1;HPM_P2
2022/08/18 00:01:05;;;;;;;22.30;18.45;;;22.70;77.60;;;;;;5037348;28;20040;-63
2022/08/18 00:03:30;;;;;;;21.38;18.30;;;22.70;77.60;;;;;;5029268;28;20034;-63
2022/08/18 00:05:56;;;;;;;20.50;17.50;;;22.60;77.50;;;;;;5037343;28;20017;-63
2022/08/18 00:08:21;;;;;;;19.90;17.80;;;22.60;77.60;;;;;;5026795;28;20041;-63
2022/08/18 00:10:47;;;;;;;21.42;18.27;;;22.60;77.60;;;;;;5037265;28;20398;-63
2022/08/18 00:13:13;;;;;;;21.67;18.30;;;22.60;77.50;;;;;;5020058;28;20458;-64
2022/08/18 00:15:38;;;;;;;20.20;17.50;;;22.60;77.50;;;;;;5023859;28;20072;-63
2022/08/18 00:18:04;;;;;;;20.17;18.05;;;22.60;77.60;;;;;;5021978;28;20361;-63
2022/08/18 00:20:32;;;;;;;21.77;18.85;;;22.60;77.50;;;;;;5037476;28;20037;-63
2022/08/18 00:22:58;;;;;;;19.70;17.60;;;22.60;77.50;;;;;;5022262;28;20041;-63
2022/08/18 00:25:24;;;;;;;21.25;18.92;;;22.60;77.40;;;;;;5037379;28;20029;-63
2022/08/18 00:27:49;;;;;;;20.15;17.92;;;22.60;77.40;;;;;;5021037;28;20042;-63
2022/08/18 00:30:19;;;;;;;20.45;18.25;;;22.50;77.40;;;;;;5023991;28;20022;-63
2022/08/18 00:32:55;;;;;;;19.65;17.58;;;22.50;77.30;;;;;;5026379;28;20509;-63
2022/08/18 00:35:33;;;;;;;20.45;17.02;;;22.50;77.30;;;;;;5010359;28;20021;-63
2022/08/18 00:38:01;;;;;;;19.55;16.85;;;22.50;77.20;;;;;;5022125;28;20022;-64
2022/08/18 00:40:31;;;;;;;19.67;17.17;;;22.50;77.20;;;;;;5021413;28;20021;-64
2022/08/18 00:43:00;;;;;;;20.98;18.58;;;22.50;77.20;;;;;;5037137;28;20120;-63
2022/08/18 00:45:31;;;;;;;22.63;18.52;;;22.50;77.20;;;;;;5025564;28;20145;-63
2022/08/18 00:47:57;;;;;;;20.70;18.50;;;22.40;77.30;;;;;;5007795;28;20034;-63
2022/08/18 00:50:50;;;;;;;20.55;17.98;;;22.40;77.30;;;;;;5032450;28;20095;-63
2022/08/18 00:53:33;;;;;;;19.17;16.70;;;22.40;77.40;;;;;;5036220;28;20095;-63
2022/08/18 00:56:05;;;;;;;20.15;16.65;;;22.40;77.40;;;;;;5036860;28;20332;-63
2022/08/18 00:58:41;;;;;;;20.95;17.45;;;22.40;77.40;;;;;;5015405;28;20029;-64
2022/08/18 01:01:10;;;;;;;19.55;17.45;;;22.30;77.30;;;;;;5008567;28;20037;-64
2022/08/18 01:03:38;;;;;;;20.65;17.23;;;22.30;77.40;;;;;;5028409;28;20083;-63
2022/08/18 01:06:20;;;;;;;19.63;17.52;;;22.30;77.40;;;;;;5036257;28;20021;-63
2022/08/18 01:08:46;;;;;;;18.25;16.35;;;22.30;77.20;;;;;;5011048;28;20045;-63
2022/08/18 01:11:12;;;;;;;19.08;16.90;;;22.30;77.30;;;;;;5031253;28;20076;-64
2022/08/18 01:13:40;;;;;;;18.95;16.92;;;22.30;77.30;;;;;;5027351;28;20038;-63
2022/08/18 01:21:50;;;;;;;19.33;15.52;;;22.30;77.00;;;;;;5030787;28;20358;-63
2022/08/18 01:24:18;;;;;;;17.65;14.50;;;22.30;77.00;;;;;;5029309;28;20124;-64
2022/08/18 01:26:49;;;;;;;16.17;14.23;;;22.30;77.00;;;;;;5029572;28;20037;-63
2022/08/18 01:29:17;;;;;;;16.45;13.68;;;22.30;76.90;;;;;;5018895;28;20030;-63
2022/08/18 01:31:53;;;;;;;17.45;14.25;;;22.20;76.80;;;;;;5033701;28;20029;-63
2022/08/18 01:34:21;;;;;;;17.83;14.40;;;22.20;76.80;;;;;;5029915;28;20026;-63
2022/08/18 01:36:47;;;;;;;15.32;13.13;;;22.20;76.70;;;;;;5028704;28;20053;-63
2022/08/18 01:39:12;;;;;;;15.75;13.55;;;22.20;76.60;;;;;;5019058;28;20069;-63
2022/08/18 01:41:39;;;;;;;16.33;12.40;;;22.20;76.50;;;;;;5028890;28;20138;-63
2022/08/18 01:44:07;;;;;;;16.95;13.82;;;22.20;76.50;;;;;;5020908;28;20037;-64
2022/08/18 01:46:34;;;;;;;16.75;14.07;;;22.20;76.40;;;;;;5012368;28;20088;-63
2022/08/18 01:49:02;;;;;;;16.45;13.70;;;22.20;76.40;;;;;;5021446;28;20073;-63
2022/08/18 01:51:31;;;;;;;14.93;12.63;;;22.20;76.30;;;;;;5020259;28;20036;-63
2022/08/18 01:53:57;;;;;;;15.07;12.23;;;22.10;76.30;;;;;;5033203;28;20467;-63
2022/08/18 01:56:26;;;;;;;14.55;12.07;;;22.10;76.20;;;;;;5030209;28;20344;-63
2022/08/18 01:58:53;;;;;;;15.10;12.57;;;22.10;76.20;;;;;;5019306;28;20033;-63
2022/08/18 02:01:21;;;;;;;13.95;12.18;;;22.10;76.10;;;;;;5023090;28;20071;-63
2022/08/18 02:03:53;;;;;;;14.18;11.45;;;22.00;76.00;;;;;;5028068;28;20311;-63
2022/08/18 02:06:20;;;;;;;12.63;10.43;;;22.00;76.00;;;;;;5020029;28;20030;-63
2022/08/18 02:08:47;;;;;;;16.10;11.40;;;22.00;76.00;;;;;;5017066;28;20131;-63
2022/08/18 02:11:13;;;;;;;13.23;10.57;;;22.00;75.90;;;;;;5032636;28;20048;-63
2022/08/18 02:13:39;;;;;;;12.73;10.77;;;21.90;75.80;;;;;;5024013;28;20108;-63
2022/08/18 02:16:06;;;;;;;12.23;9.88;;;22.00;75.80;;;;;;5020941;28;20025;-63
2022/08/18 02:18:35;;;;;;;16.83;11.13;;;22.00;75.70;;;;;;5013019;28;20026;-63
2022/08/18 02:21:14;;;;;;;12.38;10.13;;;22.00;75.60;;;;;;5034066;28;20026;-63
2022/08/18 02:23:41;;;;;;;11.50;9.88;;;21.90;75.50;;;;;;5034879;28;20474;-65
2022/08/18 02:26:09;;;;;;;12.73;9.95;;;21.90;75.50;;;;;;5026754;28;20037;-63
2022/08/18 02:28:34;;;;;;;13.52;9.88;;;22.00;75.50;;;;;;5025632;28;20036;-63
2022/08/18 02:31:06;;;;;;;11.90;10.57;;;22.00;75.40;;;;;;5018314;28;20034;-63
2022/08/18 02:33:32;;;;;;;13.32;9.93;;;22.00;75.30;;;;;;5029195;28;20129;-63
2022/08/18 02:35:58;;;;;;;12.15;10.32;;;21.90;75.30;;;;;;5027536;28;20065;-63
2022/08/18 02:38:24;;;;;;;12.02;10.35;;;21.90;75.30;;;;;;5013233;28;20053;-63
2022/08/18 02:40:55;;;;;;;14.00;9.90;;;21.90;75.30;;;;;;5009764;28;20034;-63
2022/08/18 02:43:21;;;;;;;;;;;21.90;76.00;;;;;;5009342;28;20110;-63
2022/08/18 02:45:47;;;;;;;12.63;9.40;;;21.90;75.40;;;;;;5014909;28;20069;-63
2022/08/18 02:48:12;;;;;;;13.77;9.80;;;21.80;75.40;;;;;;5005551;28;20022;-63
2022/08/18 02:50:45;;;;;;;11.90;9.82;;;21.80;75.30;;;;;;5012791;28;20034;-63
2022/08/18 02:53:18;;;;;;;13.70;9.48;;;21.80;75.40;;;;;;5032527;28;20022;-63
2022/08/18 02:55:43;;;;;;;13.25;9.85;;;21.80;75.40;;;;;;5009059;28;20406;-63
2022/08/18 02:58:09;;;;;;;14.82;10.20;;;21.70;75.40;;;;;;5021670;28;20033;-63
2022/08/18 03:00:35;;;;;;;11.32;9.00;;;21.70;75.40;;;;;;5019332;28;20125;-64
2022/08/18 03:03:01;;;;;;;14.65;10.60;;;21.70;75.40;;;;;;5012337;28;20415;-63
2022/08/18 03:05:28;;;;;;;12.75;9.88;;;21.80;75.40;;;;;;5008039;28;20042;-63
2022/08/18 03:07:54;;;;;;;12.43;9.95;;;21.80;75.40;;;;;;5012321;28;20030;-63
2022/08/18 03:10:20;;;;;;;13.30;9.82;;;21.80;75.30;;;;;;5012357;28;20095;-63
2022/08/18 03:12:45;;;;;;;13.13;10.55;;;21.80;75.40;;;;;;5012719;28;20046;-64
2022/08/18 03:15:11;;;;;;;12.88;9.13;;;21.80;75.50;;;;;;5010885;28;20029;-63
2022/08/18 03:17:38;;;;;;;12.55;10.25;;;21.80;75.40;;;;;;4998911;28;20041;-63
2022/08/18 03:20:05;;;;;;;13.32;9.52;;;21.80;75.30;;;;;;5013537;28;20089;-63
2022/08/18 03:22:31;;;;;;;15.40;9.63;;;21.80;75.40;;;;;;5013159;28;20161;-63
2022/08/18 03:24:57;;;;;;;14.57;9.60;;;21.80;75.30;;;;;;5012909;28;20445;-63
2022/08/18 03:27:23;;;;;;;11.95;8.68;;;21.80;75.30;;;;;;5006726;28;20018;-63
2022/08/18 03:29:50;;;;;;;13.32;8.73;;;21.80;75.30;;;;;;5022019;28;20042;-63
2022/08/18 03:32:15;;;;;;;12.55;8.90;;;21.80;75.30;;;;;;5012268;28;20036;-63
2022/08/18 03:34:42;;;;;;;12.27;9.30;;;21.80;75.30;;;;;;5012706;28;20034;-63
2022/08/18 03:37:08;;;;;;;13.70;9.30;;;21.80;75.30;;;;;;5010725;28;20363;-63
2022/08/18 03:39:34;;;;;;;12.05;8.68;;;21.80;75.20;;;;;;5011797;28;20029;-63
2022/08/18 03:42:00;;;;;;;12.85;8.60;;;21.80;75.20;;;;;;4994919;28;20463;-63
2022/08/18 03:44:27;;;;;;;14.20;8.52;;;21.90;75.20;;;;;;5013020;28;20443;-63
2022/08/18 03:46:53;;;;;;;13.02;8.60;;;21.80;75.10;;;;;;5011487;28;20030;-63
2022/08/18 03:49:19;;;;;;;12.60;9.30;;;21.80;75.20;;;;;;5014004;28;20116;-63
2022/08/18 03:51:45;;;;;;;13.18;8.52;;;21.80;75.20;;;;;;5011015;28;20034;-63
2022/08/18 03:54:14;;;;;;;10.43;8.05;;;21.80;75.20;;;;;;5013939;28;20036;-63
2022/08/18 03:56:41;;;;;;;10.15;7.18;;;21.80;75.20;;;;;;5013168;28;20367;-63
2022/08/18 03:59:22;;;;;;;10.57;8.52;;;21.80;75.20;;;;;;5010673;28;20030;-63
2022/08/18 04:01:53;;;;;;;10.57;7.85;;;21.80;75.20;;;;;;5011012;28;20626;-63
2022/08/18 04:04:22;;;;;;;11.15;8.32;;;21.80;75.20;;;;;;5013421;28;20030;-63
2022/08/18 04:06:57;;;;;;;12.10;8.43;;;21.80;75.20;;;;;;5033827;28;20429;-63
2022/08/18 04:09:24;;;;;;;10.63;8.60;;;21.80;75.10;;;;;;5033616;28;20041;-63
2022/08/18 04:11:51;;;;;;;11.27;7.82;;;21.80;75.20;;;;;;5023684;28;20041;-63
2022/08/18 04:14:20;;;;;;;11.00;7.82;;;21.70;75.10;;;;;;5020871;28;20033;-63
2022/08/18 04:16:47;;;;;;;10.57;8.02;;;21.80;75.20;;;;;;5033973;28;20097;-63
2022/08/18 04:19:15;;;;;;;12.60;8.63;;;21.80;75.20;;;;;;5030651;28;20449;-63
2022/08/18 04:21:42;;;;;;;12.18;8.25;;;21.80;75.20;;;;;;5027776;28;20030;-63
2022/08/18 04:24:10;;;;;;;13.05;8.57;;;21.80;75.20;;;;;;5016937;28;20034;-63
2022/08/18 04:26:43;;;;;;;11.32;8.48;;;21.80;75.20;;;;;;5029023;28;20030;-63
2022/08/18 04:29:10;;;;;;;12.88;8.40;;;21.80;75.20;;;;;;5019026;28;20447;-63
2022/08/18 04:31:36;;;;;;;12.20;7.88;;;21.80;75.20;;;;;;5024115;28;20083;-63
2022/08/18 04:34:03;;;;;;;11.95;7.88;;;21.70;75.20;;;;;;5021675;28;20021;-63
2022/08/18 04:36:32;;;;;;;10.50;7.68;;;21.70;75.20;;;;;;5015905;28;20033;-63
2022/08/18 04:38:59;;;;;;;10.93;7.63;;;21.70;75.20;;;;;;5033510;28;20030;-63
2022/08/18 04:41:26;;;;;;;13.27;8.60;;;21.80;75.20;;;;;;5030683;28;20025;-63
2022/08/18 04:44:00;;;;;;;11.18;8.35;;;21.70;75.20;;;;;;5016819;28;20041;-63
2022/08/18 04:46:26;;;;;;;11.32;7.80;;;21.80;75.30;;;;;;5028605;28;20536;-63
2022/08/18 04:48:55;;;;;;;14.40;8.10;;;21.70;75.30;;;;;;5035600;28;20036;-63
2022/08/18 04:51:21;;;;;;;10.85;8.18;;;21.80;75.30;;;;;;5035730;28;20040;-63
2022/08/18 04:53:46;;;;;;;11.85;8.23;;;21.70;75.30;;;;;;5025126;28;20447;-63
2022/08/18 04:56:25;;;;;;;11.02;8.57;;;21.70;75.30;;;;;;5020771;28;20033;-63
2022/08/18 04:58:58;;;;;;;10.65;7.97;;;21.80;75.50;;;;;;5036581;28;20053;-63
2022/08/18 05:01:30;;;;;;;11.07;7.90;;;21.70;75.50;;;;;;5036194;28;20029;-63
2022/08/18 05:03:57;;;;;;;12.68;9.18;;;21.70;75.60;;;;;;5024456;28;20117;-63
2022/08/18 05:06:25;;;;;;;14.13;9.07;;;21.70;75.70;;;;;;5019458;28;20504;-63
2022/08/18 05:08:57;;;;;;;13.10;8.90;;;21.70;75.70;;;;;;5012415;28;20136;-63
2022/08/18 05:11:25;;;;;;;14.07;8.48;;;21.80;75.80;;;;;;5031473;28;20030;-63
2022/08/18 05:13:54;;;;;;;12.57;9.85;;;21.70;75.80;;;;;;5027967;28;20071;-63
2022/08/18 05:16:20;;;;;;;14.40;9.68;;;21.70;75.80;;;;;;5001401;28;20033;-64
2022/08/18 05:18:46;;;;;;;13.90;9.90;;;21.70;75.90;;;;;;5000817;28;20112;-64
2022/08/18 05:21:14;;;;;;;12.57;10.35;;;21.70;76.00;;;;;;5003272;28;20470;-64
2022/08/18 05:23:46;;;;;;;13.57;9.75;;;21.80;76.10;;;;;;5006733;28;20038;-64
2022/08/18 05:26:15;;;;;;;12.57;9.88;;;21.80;76.00;;;;;;5005603;28;20036;-65
2022/08/18 05:28:42;;;;;;;14.65;10.73;;;21.80;76.10;;;;;;5004707;28;20037;-63
2022/08/18 05:31:21;;;;;;;15.23;10.50;;;21.80;76.00;;;;;;5005223;28;20041;-64
2022/08/18 05:33:47;;;;;;;13.98;10.30;;;21.80;76.10;;;;;;5008701;28;20034;-63
2022/08/18 05:36:34;;;;;;;16.10;10.32;;;21.80;76.20;;;;;;5007930;28;20049;-64
2022/08/18 05:39:07;;;;;;;13.93;10.00;;;21.80;76.30;;;;;;5009709;28;20021;-63
2022/08/18 05:41:37;;;;;;;15.90;10.13;;;21.80;76.30;;;;;;5023830;28;20025;-63
2022/08/18 05:44:04;;;;;;;14.45;10.52;;;21.80;76.30;;;;;;5035656;28;20033;-64
2022/08/18 05:46:47;;;;;;;13.65;9.88;;;21.80;76.40;;;;;;5035711;28;20122;-64
2022/08/18 05:49:14;;;;;;;13.23;9.55;;;21.80;76.40;;;;;;5027512;28;20084;-63
2022/08/18 05:51:47;;;;;;;13.60;9.57;;;21.80;76.40;;;;;;5016398;28;20061;-63
2022/08/18 05:57:04;;;;;;;13.10;8.63;;;21.90;76.30;;;;;;5035830;28;20108;-63
2022/08/18 05:59:31;;;;;;;;;;;22.00;76.10;;;;;;5035484;28;20330;-64
2022/08/18 06:02:24;;;;;;;17.40;8.50;;;22.00;75.80;;;;;;5035990;28;19960;-63
2022/08/18 06:04:57;;;;;;;10.82;7.85;;;22.10;76.10;;;;;;5033928;28;20076;-63
2022/08/18 06:07:45;;;;;;;13.07;8.15;;;22.10;75.50;;;;;;5027945;28;20109;-63
2022/08/18 06:10:12;;;;;;;13.52;8.48;;;22.10;75.40;;;;;;5019881;28;20029;-63
2022/08/18 06:13:01;;;;;;;13.70;8.18;;;22.10;75.40;;;;;;5014331;28;20119;-64
2022/08/18 06:15:53;;;;;;;14.50;8.38;;;22.10;75.40;;;;;;5030395;28;20033;-63
2022/08/18 06:18:50;;;;;;;13.38;8.60;;;22.10;75.40;;;;;;5019898;28;20025;-63
2022/08/18 06:21:37;;;;;;;12.32;8.27;;;22.20;75.30;;;;;;4993884;28;20046;-64
2022/08/18 06:24:30;;;;;;;13.65;7.97;;;22.20;75.20;;;;;;5001945;28;20333;-64
2022/08/18 06:27:05;;;;;;;10.32;6.85;;;22.20;75.30;;;;;;4998113;28;20121;-64
2022/08/18 06:29:55;;;;;;;11.32;7.97;;;22.30;75.20;;;;;;4975814;28;20039;-64
2022/08/18 06:32:44;;;;;;;11.60;7.45;;;22.40;75.10;;;;;;5003778;28;20045;-64
2022/08/18 06:35:35;;;;;;;9.93;6.57;;;22.40;75.00;;;;;;4983978;28;20026;-65
2022/08/18 06:38:37;;;;;;;11.63;6.93;;;22.50;74.80;;;;;;4987176;28;20055;-64
2022/08/18 06:41:32;;;;;;;12.77;6.90;;;22.60;74.70;;;;;;4999324;28;20038;-65
2022/08/18 06:44:38;;;;;;;10.90;7.00;;;22.60;74.50;;;;;;4984457;28;20054;-64
2022/08/18 06:47:36;;;;;;;11.88;7.13;;;22.60;74.40;;;;;;4991406;28;20034;-64
2022/08/18 06:50:12;;;;;;;11.02;7.35;;;22.60;74.40;;;;;;4987291;28;20041;-66
2022/08/18 06:52:55;;;;;;;12.40;7.00;;;22.80;74.20;;;;;;4994334;28;20459;-65
2022/08/18 06:55:36;;;;;;;12.50;7.18;;;23.00;73.80;;;;;;4977102;28;20069;-65
2022/08/18 06:58:12;;;;;;;10.30;6.78;;;23.20;73.40;;;;;;5009696;28;20038;-66
2022/08/18 07:00:42;;;;;;;11.40;7.00;;;23.40;72.80;;;;;;5014253;28;20061;-65
2022/08/18 07:03:38;;;;;;;12.35;6.88;;;23.50;72.30;;;;;;5012303;28;20436;-65
2022/08/18 07:06:20;;;;;;;9.32;6.57;;;23.70;71.90;;;;;;5010652;28;20038;-65
2022/08/18 07:08:47;;;;;;;9.52;5.93;;;23.90;71.40;;;;;;5012001;28;20037;-66
2022/08/18 07:11:27;;;;;;;8.88;6.00;;;24.20;71.00;;;;;;5021739;28;20116;-64
2022/08/18 07:14:23;;;;;;;8.68;5.22;;;24.50;70.00;;;;;;5027600;28;20046;-65
2022/08/18 07:16:50;;;;;;;10.55;5.45;;;24.70;69.30;;;;;;5020417;28;20106;-65
2022/08/18 07:19:21;;;;;;;8.50;5.25;;;24.90;69.00;;;;;;5028400;28;20025;-66
2022/08/18 07:22:19;;;;;;;9.60;5.00;;;25.10;68.40;;;;;;5006241;28;20030;-65
2022/08/18 07:24:48;;;;;;;9.85;4.30;;;25.40;68.30;;;;;;5001923;28;20038;-67
2022/08/18 07:27:16;;;;;;;8.48;4.93;;;25.50;67.10;;;;;;5021513;28;20033;-65
2022/08/18 07:30:00;;;;;;;8.07;4.47;;;25.80;66.50;;;;;;5012336;28;20033;-67
2022/08/18 07:32:33;;;;;;;8.05;4.70;;;26.00;66.00;;;;;;5025180;28;20044;-67
2022/08/18 07:35:02;;;;;;;8.88;5.50;;;26.10;65.50;;;;;;5007956;28;20034;-65
2022/08/18 07:37:41;;;;;;;8.80;4.80;;;26.30;64.90;;;;;;5009944;28;20045;-65
2022/08/18 07:40:24;;;;;;;7.90;4.53;;;26.50;64.50;;;;;;5007417;28;20034;-66
2022/08/18 07:43:00;;;;;;;6.78;4.45;;;26.60;64.00;;;;;;5008207;28;20065;-66
2022/08/18 07:45:35;;;;;;;7.50;4.45;;;26.70;63.50;;;;;;5008595;28;20041;-65
2022/08/18 07:48:16;;;;;;;8.77;4.30;;;26.80;63.20;;;;;;5009882;28;20037;-64
2022/08/18 07:51:08;;;;;;;8.73;4.43;;;27.00;63.00;;;;;;5010810;28;20034;-64
2022/08/18 07:54:01;;;;;;;7.05;4.13;;;27.10;62.10;;;;;;5019844;28;20292;-65
2022/08/18 07:56:50;;;;;;;8.32;3.83;;;27.20;62.90;;;;;;5009721;28;20105;-65
2022/08/18 07:59:28;;;;;;;7.30;4.38;;;27.30;61.50;;;;;;5010168;28;20026;-64
2022/08/18 08:02:18;;;;;;;7.90;3.72;;;27.30;61.10;;;;;;5011964;28;20473;-64
2022/08/18 08:05:12;;;;;;;7.55;3.40;;;27.40;60.60;;;;;;5010682;28;20029;-65
2022/08/18 08:07:50;;;;;;;7.72;4.20;;;27.30;60.60;;;;;;5012386;28;20045;-65
2022/08/18 08:10:28;;;;;;;8.10;4.00;;;27.20;60.50;;;;;;5006551;28;20029;-66
2022/08/18 08:13:29;;;;;;;6.28;3.47;;;27.20;60.50;;;;;;5010012;28;20505;-66
2022/08/18 08:16:17;;;;;;;7.00;3.88;;;27.30;61.10;;;;;;5010729;28;20038;-65
2022/08/18 08:19:05;;;;;;;7.05;3.78;;;27.40;60.00;;;;;;5023303;28;20040;-65
2022/08/18 08:21:40;;;;;;;7.20;3.63;;;27.50;59.70;;;;;;5011421;28;20470;-65
2022/08/18 08:24:19;;;;;;;8.65;3.78;;;27.60;59.20;;;;;;5008502;28;20041;-65
2022/08/18 08:27:22;;;;;;;8.20;3.72;;;27.70;59.10;;;;;;5004710;28;20038;-65
2022/08/18 08:29:56;;;;;;;6.95;3.28;;;27.80;58.90;;;;;;5010937;28;20372;-64
2022/08/18 08:32:31;;;;;;;7.68;3.60;;;28.00;58.80;;;;;;5011853;28;20030;-64
2022/08/18 08:35:22;;;;;;;5.78;3.40;;;28.00;58.40;;;;;;5008213;28;20092;-64
2022/08/18 08:37:51;;;;;;;7.28;3.85;;;27.90;58.30;;;;;;5012445;28;20530;-64
2022/08/18 08:40:29;;;;;;;8.57;3.50;;;27.90;58.40;;;;;;5012168;28;20102;-65
2022/08/18 08:42:59;;;;;;;6.38;3.20;;;28.10;58.10;;;;;;5013110;28;20033;-65
2022/08/18 08:45:38;;;;;;;6.60;3.22;;;28.30;57.70;;;;;;5011224;28;20026;-67
2022/08/18 08:48:19;;;;;;;7.25;3.65;;;28.30;57.30;;;;;;5014306;28;20022;-63
2022/08/18 08:51:20;;;;;;;5.55;3.03;;;28.00;57.30;;;;;;5011058;28;20068;-63
2022/08/18 08:54:13;;;;;;;7.07;3.35;;;27.80;57.80;;;;;;5011470;28;20532;-64
2022/08/18 08:56:44;;;;;;;6.00;3.40;;;27.50;58.20;;;;;;5012106;28;20052;-64
2022/08/18 08:59:13;;;;;;;7.75;3.42;;;27.30;58.30;;;;;;5010941;28;20022;-65
2022/08/18 09:02:09;;;;;;;6.28;3.58;;;27.10;58.40;;;;;;5014477;28;20112;-64
2022/08/18 09:05:02;;;;;;;6.75;3.30;;;26.90;58.60;;;;;;5011730;28;20431;-64
2022/08/18 09:08:10;;;;;;;6.72;3.40;;;26.60;58.90;;;;;;5009355;28;20096;-64
2022/08/18 09:10:53;;;;;;;5.63;3.35;;;26.40;59.30;;;;;;4970704;28;20034;-64
2022/08/18 09:13:29;;;;;;;6.78;3.60;;;26.20;59.80;;;;;;4973732;28;20054;-64
2022/08/18 09:16:14;;;;;;;8.23;4.50;;;26.00;60.20;;;;;;4951294;28;20046;-65
2022/08/18 09:18:47;;;;;;;5.78;3.13;;;26.00;60.30;;;;;;4969870;28;20041;-65
2022/08/18 09:21:39;;;;;;;6.30;3.97;;;26.30;60.10;;;;;;4968293;28;20122;-65
2022/08/18 09:24:18;;;;;;;8.43;4.00;;;26.70;59.20;;;;;;4970931;28;20041;-63
2022/08/18 09:27:03;;;;;;;6.70;3.63;;;27.10;58.30;;;;;;4970864;28;20436;-64
2022/08/18 09:29:37;;;;;;;6.50;3.88;;;27.50;57.90;;;;;;4970128;28;20404;-65
2022/08/18 09:32:18;;;;;;;6.15;3.30;;;27.80;57.20;;;;;;4969158;28;20039;-64
2022/08/18 09:34:59;;;;;;;6.40;3.80;;;27.80;56.80;;;;;;4970042;28;20152;-66
2022/08/18 09:37:41;;;;;;;6.47;3.67;;;27.60;57.10;;;;;;4970280;28;20035;-65
2022/08/18 09:43:15;;;;;;;6.97;3.50;;;27.10;57.90;;;;;;4969070;28;20034;-65
2022/08/18 09:45:54;;;;;;;6.18;3.85;;;26.90;58.00;;;;;;4970853;28;20042;-64
2022/08/18 09:48:35;;;;;;;7.18;3.90;;;26.70;58.30;;;;;;5025241;28;20038;-64
2022/08/18 09:51:15;;;;;;;;;;;26.50;58.70;;;;;;5011645;28;20354;-64
2022/08/18 09:53:51;;;;;;;6.15;3.17;;;26.40;59.10;;;;;;5013001;28;20338;-64
2022/08/18 09:56:48;;;;;;;7.20;3.33;;;26.20;59.10;;;;;;5009345;28;20340;-65
2022/08/18 09:59:32;;;;;;;5.90;3.53;;;26.20;59.10;;;;;;5012912;28;20021;-65
2022/08/18 10:02:05;;;;;;;6.93;3.65;;;26.20;59.20;;;;;;5024753;28;20478;-66
2022/08/18 10:04:49;;;;;;;5.22;2.95;;;26.20;59.40;;;;;;5013580;28;20174;-65
2022/08/18 10:07:32;;;;;;;9.55;4.10;;;26.20;59.30;;;;;;5010049;28;20026;-64
2022/08/18 10:10:10;;;;;;;7.88;3.58;;;26.20;59.40;;;;;;5013151;28;20077;-64
2022/08/18 10:12:36;;;;;;;5.63;3.30;;;26.20;59.30;;;;;;5010146;28;20054;-66
2022/08/18 10:15:35;;;;;;;8.32;4.25;;;26.20;59.10;;;;;;5011621;28;20506;-64
2022/08/18 10:18:34;;;;;;;7.13;3.50;;;26.20;58.80;;;;;;5010805;28;20056;-65
2022/08/18 10:21:49;;;;;;;7.38;3.78;;;26.10;58.80;;;;;;5009508;28;20351;-66
2022/08/18 10:24:18;;;;;;;5.43;3.40;;;26.10;59.00;;;;;;5008391;28;20044;-65
2022/08/18 10:26:49;;;;;;;6.43;3.72;;;26.10;59.10;;;;;;5011625;28;20033;-64
2022/08/18 10:29:27;;;;;;;7.90;3.90;;;26.10;59.00;;;;;;5011012;28;20030;-64
2022/08/18 10:31:56;;;;;;;7.15;3.70;;;26.10;59.00;;;;;;5008893;28;20030;-64
2022/08/18 10:34:44;;;;;;;8.85;4.03;;;26.10;59.10;;;;;;5012916;28;20053;-65
2022/08/18 10:37:31;;;;;;;5.93;3.67;;;26.10;58.90;;;;;;5013894;28;20084;-65
2022/08/18 10:40:03;;;;;;;6.78;3.78;;;26.10;59.10;;;;;;5012944;28;20121;-65
2022/08/18 10:42:38;;;;;;;7.18;3.85;;;26.10;59.20;;;;;;5016093;28;20615;-65
2022/08/18 10:45:17;;;;;;;5.72;3.55;;;26.10;59.10;;;;;;5005468;28;20034;-64
2022/08/18 10:47:44;;;;;;;7.75;3.75;;;26.10;59.00;;;;;;5003783;28;20034;-64
2022/08/18 10:50:20;;;;;;;6.55;3.63;;;26.20;59.10;;;;;;5009635;28;20029;-64
2022/08/18 10:53:01;;;;;;;8.75;3.83;;;26.50;58.60;;;;;;5007617;28;20057;-64
2022/08/18 10:56:04;;;;;;;6.35;3.88;;;26.80;58.20;;;;;;4990146;28;20489;-64
2022/08/18 10:58:39;;;;;;;7.05;4.00;;;26.80;58.10;;;;;;5008230;28;20041;-64
2022/08/18 11:01:31;;;;;;;7.30;4.18;;;26.80;58.20;;;;;;5010696;28;20030;-64
2022/08/18 11:04:31;;;;;;;7.75;4.00;;;26.70;58.40;;;;;;5009150;28;20175;-65
2022/08/18 11:07:04;;;;;;;8.90;4.13;;;26.60;58.60;;;;;;5006001;28;20450;-65
2022/08/18 11:09:31;;;;;;;6.95;4.18;;;26.50;58.80;;;;;;5008964;28;20474;-64
2022/08/18 11:11:59;;;;;;;8.05;4.15;;;26.50;58.90;;;;;;5012079;28;20029;-64
2022/08/18 11:14:46;;;;;;;7.93;3.97;;;26.40;59.00;;;;;;5008098;28;20045;-64
2022/08/18 11:17:46;;;;;;;7.20;4.32;;;26.30;59.20;;;;;;5012148;28;20034;-64
2022/08/18 11:20:15;;;;;;;8.82;4.35;;;26.20;59.50;;;;;;5009095;28;20443;-65
2022/08/18 11:22:51;;;;;;;8.45;4.38;;;26.10;59.50;;;;;;5007868;28;20423;-66
2022/08/18 11:25:32;;;;;;;7.45;4.80;;;26.10;59.80;;;;;;5007932;28;20525;-65
2022/08/18 11:28:00;;;;;;;8.40;4.72;;;25.90;59.80;;;;;;5005581;28;20022;-65
2022/08/18 11:30:31;;;;;;;8.40;4.55;;;25.90;60.00;;;;;;5022166;28;20038;-65
2022/08/18 11:32:57;;;;;;;8.23;4.70;;;25.80;59.90;;;;;;5016535;28;20065;-65
2022/08/18 11:35:32;;;;;;;11.43;5.03;;;25.80;60.00;;;;;;5013801;28;20441;-65
2022/08/18 11:38:12;;;;;;;9.02;5.20;;;25.70;60.00;;;;;;5030228;28;20025;-65
2022/08/18 11:40:43;;;;;;;7.40;4.30;;;25.70;60.00;;;;;;5015763;28;20382;-66
2022/08/18 11:43:11;;;;;;;7.05;4.40;;;25.60;60.10;;;;;;5019212;28;20037;-65
2022/08/18 11:45:45;;;;;;;9.05;4.13;;;25.60;60.20;;;;;;5013235;28;20057;-66
2022/08/18 11:48:13;;;;;;;8.35;4.35;;;25.60;60.20;;;;;;5013417;28;20053;-65
2022/08/18 11:50:54;;;;;;;7.88;4.53;;;25.60;60.30;;;;;;5025046;28;20340;-66
2022/08/18 11:53:50;;;;;;;8.38;4.43;;;25.60;60.20;;;;;;5011913;28;20029;-65
2022/08/18 11:56:19;;;;;;;8.07;4.40;;;25.60;60.30;;;;;;5012910;28;20340;-66
2022/08/18 11:58:52;;;;;;;8.10;4.75;;;25.60;60.40;;;;;;5016288;28;20355;-65
2022/08/18 12:01:30;;;;;;;6.53;4.15;;;25.60;60.40;;;;;;5012978;28;20041;-65
2022/08/18 12:03:58;;;;;;;8.60;4.32;;;25.80;60.40;;;;;;5018255;28;20026;-63
2022/08/18 12:06:31;;;;;;;7.50;4.85;;;25.80;60.20;;;;;;5024259;28;20034;-63
2022/08/18 12:09:06;;;;;;;8.00;4.53;;;25.90;60.10;;;;;;5013767;28;20092;-62
2022/08/18 12:11:35;;;;;;;7.63;3.88;;;26.00;59.70;;;;;;5013180;28;20120;-63
2022/08/18 12:14:05;;;;;;;8.27;4.95;;;26.10;59.70;;;;;;5012996;28;20052;-63
2022/08/18 12:16:42;;;;;;;8.23;4.75;;;26.20;59.50;;;;;;5015001;28;20062;-62
2022/08/18 12:19:11;;;;;;;6.72;3.97;;;26.20;59.10;;;;;;5006506;28;20355;-65
2022/08/18 12:21:52;;;;;;;7.75;4.15;;;26.30;59.00;;;;;;5004462;28;20153;-62
2022/08/18 12:24:28;;;;;;;6.75;4.05;;;26.20;59.10;;;;;;5005568;28;20026;-63
2022/08/18 12:26:54;;;;;;;6.47;4.10;;;26.20;59.30;;;;;;5005471;28;20459;-64
2022/08/18 12:29:20;;;;;;;7.80;4.03;;;26.20;59.50;;;;;;5005082;28;20359;-64
2022/08/18 12:31:50;;;;;;;8.02;4.35;;;26.20;59.50;;;;;;5003466;28;20038;-64
2022/08/18 12:34:18;;;;;;;8.45;4.20;;;26.10;59.30;;;;;;5004440;28;20462;-62
2022/08/18 12:36:44;;;;;;;8.95;4.30;;;26.10;59.50;;;;;;5005218;28;20026;-62
2022/08/18 12:39:10;;;;;;;8.00;4.68;;;26.10;59.50;;;;;;4995621;28;20176;-62
2022/08/18 12:41:36;;;;;;;6.78;4.18;;;26.00;59.50;;;;;;5027965;28;20244;-64
2022/08/18 12:44:02;;;;;;;6.25;3.85;;;26.00;59.50;;;;;;5012066;28;20041;-66
2022/08/18 12:46:29;;;;;;;7.30;4.18;;;26.00;59.50;;;;;;5025433;28;20038;-65
2022/08/18 12:48:55;;;;;;;6.82;3.88;;;26.00;59.30;;;;;;5010474;28;20069;-63
2022/08/18 12:51:21;;;;;;;9.07;4.00;;;26.00;59.10;;;;;;5008636;28;20037;-64
2022/08/18 12:53:47;;;;;;;7.18;3.83;;;26.00;59.00;;;;;;5009863;28;20033;-66
2022/08/18 12:56:24;;;;;;;6.32;3.53;;;26.00;59.10;;;;;;5014523;28;20160;-66
2022/08/18 12:58:51;;;;;;;6.43;3.67;;;26.00;59.30;;;;;;5007012;28;20087;-66
2022/08/18 13:01:18;;;;;;;8.00;3.45;;;26.00;59.40;;;;;;5007373;28;20022;-66
2022/08/18 13:03:45;;;;;;;7.57;3.88;;;25.90;59.60;;;;;;5010509;28;20044;-65
2022/08/18 13:06:12;;;;;;;6.43;3.97;;;25.90;59.50;;;;;;5005641;28;20026;-65
2022/08/18 13:08:38;;;;;;;7.00;3.92;;;25.90;59.70;;;;;;5008674;28;20041;-68
2022/08/18 13:11:09;;;;;;;7.65;4.15;;;25.90;59.70;;;;;;5008360;28;20037;-65
2022/08/18 13:13:39;;;;;;;8.02;4.68;;;25.80;59.70;;;;;;5007349;28;20407;-65
2022/08/18 13:16:08;;;;;;;7.00;4.25;;;25.80;59.80;;;;;;5012067;28;20108;-65
2022/08/18 13:18:34;;;;;;;6.60;3.75;;;25.70;60.20;;;;;;5005438;28;20022;-65
2022/08/18 13:21:02;;;;;;;6.88;4.45;;;25.70;60.40;;;;;;5011636;28;20347;-66
2022/08/18 13:23:30;;;;;;;7.60;4.40;;;25.70;60.40;;;;;;5010965;28;20040;-66
2022/08/18 13:25:58;;;;;;;7.53;4.47;;;25.70;60.20;;;;;;5006916;28;20030;-66
2022/08/18 13:28:24;;;;;;;7.72;4.13;;;25.70;60.00;;;;;;5008624;28;20056;-65